createdAt,value
2018-11-14T00:00:55.614Z,7.60
2018-11-14T00:01:55.591Z,8.10
2018-11-14T00:02:55.555Z,8.20
2018-11-14T00:03:55.523Z,7.70
2018-11-14T00:04:55.500Z,7.40
2018-11-14T00:05:55.465Z,7.30
2018-11-14T00:06:55.435Z,6.80
2018-11-14T00:07:55.405Z,7.90
2018-11-14T00:08:55.376Z,7.70
2018-11-14T00:09:55.348Z,8.40
2018-11-14T00:10:55.326Z,8.20
2018-11-14T00:11:55.293Z,7.90
2018-11-14T00:12:55.260Z,7.90
2018-11-14T00:13:55.230Z,7.20
2018-11-14T00:14:55.201Z,8.10
2018-11-14T00:15:55.194Z,7.60
2018-11-14T00:16:55.141Z,7.60
2018-11-14T00:17:55.115Z,7.10
2018-11-14T00:18:55.083Z,6.80
2018-11-14T00:19:55.278Z,7.20
2018-11-14T00:20:55.025Z,8.10
2018-11-14T00:21:54.995Z,7.90
2018-11-14T00:22:54.989Z,6.90
2018-11-14T00:23:55.387Z,7.40
2018-11-14T00:24:55.052Z,7.90
2018-11-14T00:25:54.879Z,8.20
2018-11-14T00:26:54.849Z,7.80
2018-11-14T00:27:54.856Z,7.00
2018-11-14T00:28:54.790Z,7.90
2018-11-14T00:29:54.764Z,7.70
2018-11-14T00:30:54.732Z,9.00
2018-11-14T00:31:54.703Z,8.50
2018-11-14T00:32:54.696Z,8.80
2018-11-14T00:33:54.652Z,9.90
2018-11-14T00:34:54.725Z,9.10
2018-11-14T00:35:54.586Z,9.10
2018-11-14T00:36:54.556Z,9.30
2018-11-14T00:37:54.526Z,8.40
2018-11-14T00:38:54.500Z,7.80
2018-11-14T00:39:54.469Z,7.20
2018-11-14T00:40:54.438Z,7.50
2018-11-14T00:41:54.413Z,8.40
2018-11-14T00:42:54.382Z,10.00
2018-11-14T00:43:54.350Z,8.20
2018-11-14T00:44:54.322Z,8.70
2018-11-14T00:45:54.294Z,8.10
2018-11-14T00:46:54.263Z,9.20
2018-11-14T00:47:54.233Z,9.70
2018-11-14T00:48:54.204Z,7.10
2018-11-14T00:49:54.174Z,9.60
2018-11-14T00:50:54.147Z,10.20
2018-11-14T00:51:54.116Z,9.10
2018-11-14T00:52:54.087Z,9.50
2018-11-14T00:53:54.057Z,9.70
2018-11-14T00:54:54.028Z,9.20
2018-11-14T00:55:54.035Z,9.10
2018-11-14T00:56:53.970Z,6.80
2018-11-14T00:57:53.939Z,10.80
2018-11-14T00:58:53.911Z,7.80
2018-11-14T00:59:53.938Z,8.50
2018-11-14T01:00:53.860Z,8.40
2018-11-14T01:01:53.822Z,8.70
2018-11-14T01:02:53.792Z,9.10
2018-11-14T01:03:53.786Z,8.70
2018-11-14T01:04:53.733Z,9.70
2018-11-14T01:05:53.705Z,10.50
2018-11-14T01:06:53.679Z,8.40
2018-11-14T01:07:53.645Z,9.20
2018-11-14T01:08:53.615Z,10.40
2018-11-14T01:09:54.101Z,10.10
2018-11-14T01:10:53.561Z,10.30
2018-11-14T01:11:53.534Z,10.80
2018-11-14T01:12:53.516Z,10.80
2018-11-14T01:13:53.468Z,10.40
2018-11-14T01:14:53.440Z,10.30
2018-11-14T01:15:53.409Z,10.30
2018-11-14T01:16:53.380Z,10.50
2018-11-14T01:17:53.351Z,10.00
2018-11-14T01:18:53.326Z,10.30
2018-11-14T01:19:53.318Z,9.50
2018-11-14T01:20:53.263Z,10.00
2018-11-14T01:21:53.234Z,9.30
2018-11-14T01:22:53.204Z,10.90
2018-11-14T01:23:53.177Z,9.80
2018-11-14T01:24:53.145Z,9.70
2018-11-14T01:25:53.116Z,11.50
2018-11-14T01:26:53.099Z,9.80
2018-11-14T01:27:53.055Z,11.80
2018-11-14T01:28:53.048Z,10.50
2018-11-14T01:29:52.998Z,10.90
2018-11-14T01:30:52.970Z,11.10
2018-11-14T01:31:52.943Z,10.40
2018-11-14T01:32:52.910Z,9.50
2018-11-14T01:33:52.897Z,9.70
2018-11-14T01:34:52.850Z,10.30
2018-11-14T01:35:52.842Z,11.30
2018-11-14T01:36:52.792Z,9.80
2018-11-14T01:37:52.766Z,10.70
2018-11-14T01:38:52.752Z,10.30
2018-11-14T01:39:52.703Z,10.80
2018-11-14T01:40:52.673Z,10.60
2018-11-14T01:41:52.645Z,10.40
2018-11-14T01:42:52.627Z,9.50
2018-11-14T01:43:52.585Z,10.00
2018-11-14T01:44:52.556Z,9.60
2018-11-14T01:45:52.529Z,9.90
2018-11-14T01:46:52.497Z,10.30
2018-11-14T01:47:52.472Z,11.10
2018-11-14T01:48:52.438Z,11.90
2018-11-14T01:49:52.409Z,10.00
2018-11-14T01:50:52.381Z,10.00
2018-11-14T01:51:52.349Z,10.40
2018-11-14T01:52:52.320Z,10.20
2018-11-14T01:53:52.293Z,10.80
2018-11-14T01:54:52.263Z,11.10
2018-11-14T01:55:52.232Z,9.80
2018-11-14T01:56:52.201Z,10.90
2018-11-14T01:57:52.179Z,11.90
2018-11-14T01:58:52.145Z,14.00
2018-11-14T01:59:52.113Z,12.50
2018-11-14T02:00:52.084Z,11.10
2018-11-14T02:01:52.054Z,11.20
2018-11-14T02:02:52.025Z,9.30
2018-11-14T02:03:51.995Z,11.70
2018-11-14T02:04:51.965Z,10.70
2018-11-14T02:05:51.938Z,12.40
2018-11-14T02:06:51.913Z,10.30
2018-11-14T02:07:51.878Z,11.70
2018-11-14T02:08:51.848Z,13.30
2018-11-14T02:09:51.827Z,14.00
2018-11-14T02:10:51.791Z,11.80
2018-11-14T02:11:51.760Z,13.80
2018-11-14T02:12:51.729Z,16.60
2018-11-14T02:13:51.700Z,13.80
2018-11-14T02:14:51.671Z,13.90
2018-11-14T02:15:51.641Z,13.70
2018-11-14T02:16:51.611Z,15.80
2018-11-14T02:17:51.583Z,12.60
2018-11-14T02:18:51.558Z,11.50
2018-11-14T02:19:51.527Z,12.30
2018-11-14T02:20:51.492Z,10.10
2018-11-14T02:21:51.470Z,12.60
2018-11-14T02:22:51.434Z,13.40
2018-11-14T02:23:51.403Z,11.70
2018-11-14T02:24:51.379Z,15.00
2018-11-14T02:25:51.344Z,13.30
2018-11-14T02:26:51.318Z,12.70
2018-11-14T02:27:51.285Z,11.40
2018-11-14T02:28:51.258Z,9.00
2018-11-14T02:29:51.228Z,14.30
2018-11-14T02:30:51.199Z,14.00
2018-11-14T02:31:51.165Z,16.80
2018-11-14T02:32:51.136Z,13.80
2018-11-14T02:33:51.116Z,13.90
2018-11-14T02:34:51.127Z,14.50
2018-11-14T02:35:51.076Z,15.90
2018-11-14T02:36:51.018Z,17.80
2018-11-14T02:37:50.989Z,16.00
2018-11-14T02:38:50.978Z,14.40
2018-11-14T02:39:50.928Z,14.10
2018-11-14T02:40:50.899Z,16.40
2018-11-14T02:41:50.874Z,18.20
2018-11-14T02:42:50.849Z,17.30
2018-11-14T02:43:50.809Z,20.60
2018-11-14T02:44:50.785Z,18.60
2018-11-14T02:45:50.751Z,19.10
2018-11-14T02:46:50.726Z,18.20
2018-11-14T02:47:50.689Z,17.90
2018-11-14T02:48:50.661Z,17.00
2018-11-14T02:49:50.631Z,17.40
2018-11-14T02:50:50.602Z,19.70
2018-11-14T02:51:50.577Z,19.50
2018-11-14T02:52:50.542Z,19.00
2018-11-14T02:53:50.514Z,19.40
2018-11-14T02:54:50.483Z,21.40
2018-11-14T02:55:50.452Z,14.20
2018-11-14T02:56:50.429Z,18.20
2018-11-14T02:57:50.394Z,20.20
2018-11-14T02:58:50.364Z,18.20
2018-11-14T02:59:50.337Z,20.00
2018-11-14T03:00:50.304Z,21.40
2018-11-14T03:01:50.280Z,21.70
2018-11-14T03:02:50.246Z,21.70
2018-11-14T03:03:50.214Z,22.40
2018-11-14T03:04:50.185Z,18.50
2018-11-14T03:05:50.155Z,18.90
2018-11-14T03:06:50.133Z,22.70
2018-11-14T03:07:50.095Z,23.30
2018-11-14T03:08:50.068Z,22.10
2018-11-14T03:09:50.037Z,22.10
2018-11-14T03:10:50.009Z,19.50
2018-11-14T03:11:49.975Z,19.70
2018-11-14T03:12:49.945Z,21.70
2018-11-14T03:13:49.916Z,21.30
2018-11-14T03:14:49.889Z,16.10
2018-11-14T03:15:49.860Z,17.90
2018-11-14T03:16:49.826Z,20.50
2018-11-14T03:17:49.798Z,13.90
2018-11-14T03:18:49.767Z,14.30
2018-11-14T03:19:49.738Z,18.00
2018-11-14T03:20:49.708Z,18.80
2018-11-14T03:21:49.678Z,17.90
2018-11-14T03:22:49.660Z,18.70
2018-11-14T03:23:49.617Z,18.70
2018-11-14T03:24:49.588Z,20.00
2018-11-14T03:25:49.562Z,18.40
2018-11-14T03:26:49.529Z,21.50
2018-11-14T03:27:49.510Z,17.70
2018-11-14T03:28:49.470Z,20.70
2018-11-14T03:29:49.438Z,21.10
2018-11-14T03:30:49.408Z,23.10
2018-11-14T03:31:49.400Z,19.40
2018-11-14T03:32:49.351Z,21.80
2018-11-14T03:33:49.319Z,18.90
2018-11-14T03:34:49.492Z,19.90
2018-11-14T03:35:49.259Z,21.50
2018-11-14T03:36:49.228Z,22.20
2018-11-14T03:37:49.199Z,20.00
2018-11-14T03:38:49.168Z,19.20
2018-11-14T03:39:49.138Z,19.10
2018-11-14T03:40:49.112Z,23.40
2018-11-14T03:41:49.079Z,21.40
2018-11-14T03:42:49.058Z,17.30
2018-11-14T03:43:49.020Z,18.70
2018-11-14T03:44:48.990Z,21.60
2018-11-14T03:45:48.968Z,21.50
2018-11-14T03:46:48.929Z,23.00
2018-11-14T03:47:48.900Z,20.50
2018-11-14T03:48:48.875Z,22.70
2018-11-14T03:49:48.846Z,24.10
2018-11-14T03:50:48.812Z,24.80
2018-11-14T03:51:48.781Z,24.00
2018-11-14T03:52:48.752Z,24.90
2018-11-14T03:53:48.722Z,24.50
2018-11-14T03:54:48.693Z,22.00
2018-11-14T03:55:48.661Z,23.50
2018-11-14T03:56:48.645Z,27.00
2018-11-14T03:57:48.601Z,24.40
2018-11-14T03:58:48.576Z,27.40
2018-11-14T03:59:48.542Z,26.20
2018-11-14T04:00:48.514Z,27.90
2018-11-14T04:01:48.486Z,24.90
2018-11-14T04:02:48.456Z,25.00
2018-11-14T04:03:48.423Z,26.60
2018-11-14T04:04:48.392Z,27.80
2018-11-14T04:05:48.614Z,30.60
2018-11-14T04:06:48.335Z,27.90
2018-11-14T04:07:48.302Z,30.60
2018-11-14T04:08:48.273Z,25.70
2018-11-14T04:09:48.244Z,18.50
2018-11-14T04:10:48.215Z,28.10
2018-11-14T04:11:48.191Z,30.90
2018-11-14T04:12:48.153Z,27.80
2018-11-14T04:13:48.126Z,28.80
2018-11-14T04:14:48.095Z,30.60
2018-11-14T04:15:48.064Z,28.50
2018-11-14T04:16:48.034Z,28.00
2018-11-14T04:17:48.004Z,29.10
2018-11-14T04:18:47.976Z,31.50
2018-11-14T04:19:47.945Z,29.70
2018-11-14T04:20:47.918Z,29.00
2018-11-14T04:21:47.887Z,32.80
2018-11-14T04:22:47.855Z,34.00
2018-11-14T04:23:47.825Z,33.80
2018-11-14T04:24:47.795Z,34.60
2018-11-14T04:25:47.765Z,34.50
2018-11-14T04:26:47.736Z,32.20
2018-11-14T04:27:47.812Z,34.80
2018-11-14T04:28:47.678Z,36.00
2018-11-14T04:29:47.647Z,32.40
2018-11-14T04:30:47.617Z,36.10
2018-11-14T04:31:47.585Z,39.00
2018-11-14T04:32:47.559Z,39.00
2018-11-14T04:33:47.530Z,35.50
2018-11-14T04:34:47.501Z,36.30
2018-11-14T04:35:47.470Z,32.30
2018-11-14T04:36:47.436Z,36.80
2018-11-14T04:37:47.410Z,36.40
2018-11-14T04:38:47.385Z,38.20
2018-11-14T04:39:47.346Z,41.70
2018-11-14T04:40:47.324Z,40.70
2018-11-14T04:41:47.288Z,44.50
2018-11-14T04:42:47.275Z,37.80
2018-11-14T04:43:47.230Z,33.30
2018-11-14T04:44:47.198Z,38.70
2018-11-14T04:45:47.171Z,31.30
2018-11-14T04:46:47.139Z,45.00
2018-11-14T04:47:47.119Z,45.00
2018-11-14T04:48:47.082Z,33.70
2018-11-14T04:49:47.060Z,43.00
2018-11-14T04:50:47.020Z,43.20
2018-11-14T04:51:46.990Z,43.30
2018-11-14T04:52:46.959Z,36.80
2018-11-14T04:53:46.931Z,33.10
2018-11-14T04:54:46.903Z,45.00
2018-11-14T04:55:46.871Z,39.00
2018-11-14T04:56:46.842Z,41.30
2018-11-14T04:57:46.961Z,41.10
2018-11-14T04:58:46.796Z,36.30
2018-11-14T04:59:46.771Z,42.20
2018-11-14T05:00:46.722Z,43.00
2018-11-14T05:01:46.692Z,31.10
2018-11-14T05:02:46.662Z,39.80
2018-11-14T05:03:46.631Z,35.70
2018-11-14T05:04:46.603Z,29.70
2018-11-14T05:05:46.573Z,32.50
2018-11-14T05:06:46.588Z,32.30
2018-11-14T05:07:46.513Z,43.10
2018-11-14T05:08:46.483Z,45.90
2018-11-14T05:09:46.462Z,44.60
2018-11-14T05:10:46.424Z,42.20
2018-11-14T05:11:46.394Z,36.10
2018-11-14T05:12:46.371Z,44.40
2018-11-14T05:13:46.335Z,48.60
2018-11-14T05:14:46.306Z,44.90
2018-11-14T05:15:46.277Z,41.40
2018-11-14T05:16:46.245Z,38.80
2018-11-14T05:17:46.218Z,37.70
2018-11-14T05:18:46.188Z,42.00
2018-11-14T05:19:46.159Z,46.60
2018-11-14T05:20:46.126Z,50.30
2018-11-14T05:21:46.101Z,42.40
2018-11-14T05:22:46.075Z,45.50
2018-11-14T05:23:46.039Z,42.30
2018-11-14T05:24:46.181Z,40.80
2018-11-14T05:25:45.977Z,40.00
2018-11-14T05:26:45.950Z,36.20
2018-11-14T05:27:45.919Z,42.00
2018-11-14T05:28:45.896Z,44.40
2018-11-14T05:29:45.862Z,43.50
2018-11-14T05:30:45.830Z,47.20
2018-11-14T05:31:45.856Z,48.00
2018-11-14T05:32:45.770Z,36.70
2018-11-14T05:33:45.739Z,41.20
2018-11-14T05:34:45.710Z,36.30
2018-11-14T05:35:45.680Z,41.80
2018-11-14T05:36:45.650Z,44.00
2018-11-14T05:37:45.624Z,50.70
2018-11-14T05:38:45.595Z,47.00
2018-11-14T05:39:45.654Z,35.40
2018-11-14T05:40:45.531Z,34.50
2018-11-14T05:41:45.501Z,36.10
2018-11-14T05:42:45.473Z,33.80
2018-11-14T05:43:45.443Z,31.60
2018-11-14T05:44:45.416Z,35.90
2018-11-14T05:45:45.383Z,49.80
2018-11-14T05:46:45.353Z,35.50
2018-11-14T05:47:45.347Z,35.00
2018-11-14T05:48:45.292Z,40.70
2018-11-14T05:49:45.268Z,42.00
2018-11-14T05:50:46.084Z,47.70
2018-11-14T05:51:45.203Z,56.00
2018-11-14T05:52:45.181Z,50.50
2018-11-14T05:53:45.150Z,50.40
2018-11-14T05:54:45.160Z,52.20
2018-11-14T05:55:45.084Z,54.70
2018-11-14T05:56:45.055Z,48.90
2018-11-14T05:57:45.039Z,41.10
2018-11-14T05:58:44.995Z,39.00
2018-11-14T05:59:44.969Z,57.20
2018-11-14T06:00:44.944Z,42.10
2018-11-14T06:01:44.910Z,52.40
2018-11-14T06:02:44.878Z,51.60
2018-11-14T06:03:44.848Z,47.00
2018-11-14T06:04:44.817Z,45.10
2018-11-14T06:05:44.796Z,52.30
2018-11-14T06:06:44.758Z,54.00
2018-11-14T06:07:44.729Z,56.20
2018-11-14T06:08:44.698Z,49.70
2018-11-14T06:09:44.667Z,54.90
2018-11-14T06:10:44.641Z,59.50
2018-11-14T06:11:44.609Z,58.00
2018-11-14T06:12:44.582Z,56.30
2018-11-14T06:13:44.550Z,48.40
2018-11-14T06:14:44.520Z,48.00
2018-11-14T06:15:44.489Z,57.20
2018-11-14T06:16:44.460Z,58.10
2018-11-14T06:17:44.429Z,51.10
2018-11-14T06:18:44.405Z,55.90
2018-11-14T06:19:44.371Z,55.80
2018-11-14T06:20:44.341Z,44.20
2018-11-14T06:21:44.369Z,34.50
2018-11-14T06:22:44.290Z,41.30
2018-11-14T06:23:44.267Z,35.50
2018-11-14T06:24:44.223Z,36.70
2018-11-14T06:25:44.195Z,49.40
2018-11-14T06:26:44.165Z,53.90
2018-11-14T06:27:44.134Z,59.40
2018-11-14T06:28:44.104Z,53.70
2018-11-14T06:29:44.113Z,60.20
2018-11-14T06:30:44.045Z,57.30
2018-11-14T06:31:44.015Z,58.70
2018-11-14T06:32:43.985Z,57.50
2018-11-14T06:33:43.955Z,59.30
2018-11-14T06:34:43.927Z,52.20
2018-11-14T06:35:43.896Z,52.70
2018-11-14T06:36:43.878Z,52.90
2018-11-14T06:37:43.837Z,54.00
2018-11-14T06:38:43.809Z,51.20
2018-11-14T06:39:43.777Z,42.10
2018-11-14T06:40:43.754Z,39.50
2018-11-14T06:41:43.759Z,38.80
2018-11-14T06:42:43.690Z,36.30
2018-11-14T06:43:43.663Z,38.30
2018-11-14T06:44:43.641Z,35.60
2018-11-14T06:45:43.601Z,33.00
2018-11-14T06:46:43.569Z,24.50
2018-11-14T06:47:43.540Z,24.50
2018-11-14T06:48:43.519Z,30.50
2018-11-14T06:49:43.483Z,27.80
2018-11-14T06:50:43.452Z,22.90
2018-11-14T06:51:43.436Z,25.30
2018-11-14T06:52:43.396Z,25.50
2018-11-14T06:53:43.367Z,23.90
2018-11-14T06:54:43.333Z,25.70
2018-11-14T06:55:43.307Z,31.40
2018-11-14T06:56:43.273Z,24.90
2018-11-14T06:57:43.243Z,28.70
2018-11-14T06:58:43.289Z,23.50
2018-11-14T06:59:43.286Z,20.20
2018-11-14T07:00:43.165Z,18.70
2018-11-14T07:01:43.128Z,22.70
2018-11-14T07:02:43.100Z,30.60
2018-11-14T07:03:43.064Z,40.30
2018-11-14T07:04:43.035Z,44.20
2018-11-14T07:05:43.166Z,41.90
2018-11-14T07:06:42.975Z,39.40
2018-11-14T07:07:42.945Z,32.40
2018-11-14T07:08:42.916Z,30.00
2018-11-14T07:09:42.889Z,46.10
2018-11-14T07:10:42.856Z,43.80
2018-11-14T07:11:42.825Z,40.40
2018-11-14T07:14:42.739Z,43.10
2018-11-14T07:15:42.729Z,31.40
2018-11-14T07:16:42.678Z,34.10
2018-11-14T07:17:42.652Z,23.40
2018-11-14T07:18:42.622Z,31.10
2018-11-14T07:19:42.590Z,33.10
2018-11-14T07:20:42.563Z,33.90
2018-11-14T07:21:42.531Z,29.60
2018-11-14T07:22:42.502Z,35.90
2018-11-14T07:23:42.503Z,43.50
2018-11-14T07:24:42.496Z,36.40
2018-11-14T07:25:42.414Z,35.30
2018-11-14T07:26:42.383Z,39.90
2018-11-14T07:27:42.353Z,43.30
2018-11-14T07:28:42.325Z,36.10
2018-11-14T07:29:42.296Z,41.70
2018-11-14T07:30:42.265Z,38.60
2018-11-14T07:31:42.241Z,40.50
2018-11-14T07:32:42.207Z,43.60
2018-11-14T07:33:42.176Z,43.20
2018-11-14T07:34:42.148Z,44.30
2018-11-14T07:35:42.118Z,47.20
2018-11-14T07:36:42.096Z,45.90
2018-11-14T07:37:42.062Z,43.50
2018-11-14T07:38:42.030Z,41.90
2018-11-14T07:39:42.003Z,42.50
2018-11-14T07:40:41.974Z,40.90
2018-11-14T07:41:41.942Z,45.20
2018-11-14T07:42:41.913Z,42.10
2018-11-14T07:43:42.018Z,40.30
2018-11-14T07:44:41.859Z,44.40
2018-11-14T07:45:41.825Z,42.90
2018-11-14T07:46:41.799Z,38.80
2018-11-14T07:47:41.772Z,40.90
2018-11-14T07:48:41.736Z,36.50
2018-11-14T07:49:41.711Z,38.50
2018-11-14T07:50:41.680Z,36.60
2018-11-14T07:51:41.648Z,29.00
2018-11-14T07:52:41.620Z,25.50
2018-11-14T07:53:41.591Z,26.90
2018-11-14T07:54:41.630Z,26.50
2018-11-14T07:55:41.532Z,28.20
2018-11-14T07:56:41.503Z,26.10
2018-11-14T07:57:41.473Z,27.40
2018-11-14T07:58:41.450Z,27.40
2018-11-14T07:59:41.414Z,29.20
2018-11-14T08:00:41.393Z,30.50
2018-11-14T08:01:41.356Z,33.20
2018-11-14T08:02:41.328Z,35.40
2018-11-14T08:03:41.297Z,37.60
2018-11-14T08:04:41.268Z,37.90
2018-11-14T08:05:41.238Z,38.30
2018-11-14T08:06:41.212Z,38.10
2018-11-14T08:07:41.198Z,40.20
2018-11-14T08:08:41.155Z,35.60
2018-11-14T08:09:41.129Z,41.10
2018-11-14T08:10:41.096Z,41.30
2018-11-14T08:11:41.065Z,40.20
2018-11-14T08:12:41.033Z,42.10
2018-11-14T08:13:41.005Z,46.60
2018-11-14T08:14:40.976Z,43.50
2018-11-14T08:15:40.949Z,40.30
2018-11-14T08:16:40.917Z,39.20
2018-11-14T08:17:40.889Z,35.50
2018-11-14T08:18:40.945Z,31.90
2018-11-14T08:19:40.830Z,44.70
2018-11-14T08:20:40.800Z,40.20
2018-11-14T08:21:40.771Z,45.30
2018-11-14T08:22:40.741Z,43.90
2018-11-14T08:23:40.712Z,42.40
2018-11-14T08:24:40.684Z,39.20
2018-11-14T08:25:40.657Z,39.90
2018-11-14T08:26:40.626Z,32.50
2018-11-14T08:27:40.596Z,28.60
2018-11-14T08:28:40.580Z,33.80
2018-11-14T08:29:40.542Z,31.20
2018-11-14T08:30:40.638Z,29.20
2018-11-14T08:31:40.484Z,22.90
2018-11-14T08:32:40.450Z,23.70
2018-11-14T08:33:40.426Z,24.80
2018-11-14T08:34:40.395Z,25.30
2018-11-14T08:35:40.363Z,28.60
2018-11-14T08:36:40.333Z,37.80
2018-11-14T08:37:40.303Z,40.60
2018-11-14T08:38:40.295Z,39.00
2018-11-14T08:39:40.244Z,32.00
2018-11-14T08:40:40.216Z,38.80
2018-11-14T08:41:40.187Z,39.00
2018-11-14T08:42:40.160Z,33.10
2018-11-14T08:43:40.127Z,23.80
2018-11-14T08:44:40.101Z,37.70
2018-11-14T08:45:40.069Z,30.70
2018-11-14T08:46:40.040Z,31.10
2018-11-14T08:47:40.021Z,34.80
2018-11-14T08:48:39.993Z,34.00
2018-11-14T08:49:39.950Z,30.90
2018-11-14T08:50:39.922Z,29.50
2018-11-14T08:51:39.897Z,32.70
2018-11-14T08:52:39.863Z,30.60
2018-11-14T08:53:39.835Z,35.20
2018-11-14T08:54:39.807Z,30.00
2018-11-14T08:55:39.781Z,21.20
2018-11-14T08:56:39.749Z,31.60
2018-11-14T08:57:39.718Z,27.70
2018-11-14T08:58:39.690Z,22.40
2018-11-14T08:59:39.664Z,22.80
2018-11-14T09:00:39.634Z,25.10
2018-11-14T09:01:39.614Z,20.70
2018-11-14T09:02:39.575Z,25.50
2018-11-14T09:03:39.544Z,25.00
2018-11-14T09:04:39.514Z,18.40
2018-11-14T09:05:39.487Z,22.20
2018-11-14T09:06:39.465Z,28.60
2018-11-14T09:07:39.445Z,25.30
2018-11-14T09:08:39.399Z,25.50
2018-11-14T09:09:39.379Z,24.90
2018-11-14T09:10:39.342Z,27.90
2018-11-14T09:11:39.312Z,27.20
2018-11-14T09:12:39.368Z,23.50
2018-11-14T09:13:39.255Z,25.00
2018-11-14T09:14:39.263Z,28.00
2018-11-14T09:15:39.199Z,23.50
2018-11-14T09:16:39.170Z,25.10
2018-11-14T09:17:39.143Z,22.20
2018-11-14T09:18:39.198Z,29.30
2018-11-14T09:19:39.132Z,23.20
2018-11-14T09:20:39.058Z,30.90
2018-11-14T09:21:39.032Z,31.40
2018-11-14T09:22:38.996Z,34.30
2018-11-14T09:23:39.022Z,35.90
2018-11-14T09:24:38.949Z,35.60
2018-11-14T09:25:38.917Z,32.50
2018-11-14T09:26:38.882Z,30.70
2018-11-14T09:27:38.856Z,35.60
2018-11-14T09:28:38.829Z,35.20
2018-11-14T09:29:38.796Z,39.10
2018-11-14T09:30:38.770Z,40.30
2018-11-14T09:31:38.739Z,41.10
2018-11-14T09:32:38.710Z,40.50
2018-11-14T09:33:38.691Z,37.90
2018-11-14T09:34:38.696Z,37.70
2018-11-14T09:35:38.625Z,39.60
2018-11-14T09:36:38.598Z,36.40
2018-11-14T09:37:38.573Z,38.50
2018-11-14T09:38:38.551Z,39.80
2018-11-14T09:39:38.512Z,36.40
2018-11-14T09:40:38.553Z,36.20
2018-11-14T09:41:38.455Z,25.00
2018-11-14T09:42:38.433Z,27.90
2018-11-14T09:43:38.397Z,27.40
2018-11-14T09:44:38.451Z,27.40
2018-11-14T09:45:38.557Z,29.20
2018-11-14T09:46:38.315Z,22.60
2018-11-14T09:47:38.286Z,25.80
2018-11-14T09:48:38.316Z,25.30
2018-11-14T09:49:38.233Z,26.70
2018-11-14T09:50:38.205Z,28.90
2018-11-14T09:51:38.174Z,27.60
2018-11-14T09:52:38.147Z,27.50
2018-11-14T09:53:38.128Z,24.60
2018-11-14T09:54:38.093Z,23.80
2018-11-14T09:55:38.064Z,27.50
2018-11-14T09:56:38.073Z,29.20
2018-11-14T09:57:38.011Z,30.00
2018-11-14T09:58:38.043Z,29.20
2018-11-14T09:59:37.951Z,27.30
2018-11-14T10:00:37.934Z,28.60
2018-11-14T10:01:37.896Z,28.80
2018-11-14T10:02:37.888Z,30.40
2018-11-14T10:03:37.927Z,28.70
2018-11-14T10:04:37.811Z,26.60
2018-11-14T10:05:37.872Z,26.90
2018-11-14T10:06:37.756Z,30.30
2018-11-14T10:07:37.737Z,28.70
2018-11-14T10:08:37.700Z,30.90
2018-11-14T10:09:37.679Z,28.90
2018-11-14T10:10:37.643Z,30.10
2018-11-14T10:11:37.617Z,32.70
2018-11-14T10:12:37.589Z,30.20
2018-11-14T10:13:37.560Z,26.40
2018-11-14T10:14:37.533Z,26.20
2018-11-14T10:15:37.585Z,32.50
2018-11-14T10:16:37.475Z,32.20
2018-11-14T10:17:37.448Z,29.60
2018-11-14T10:18:37.425Z,31.90
2018-11-14T10:19:37.393Z,32.20
2018-11-14T10:20:37.366Z,29.50
2018-11-14T10:21:37.364Z,29.90
2018-11-14T10:22:37.311Z,31.70
2018-11-14T10:23:37.278Z,31.90
2018-11-14T10:24:37.253Z,31.50
2018-11-14T10:25:37.229Z,31.20
2018-11-14T10:26:37.198Z,31.10
2018-11-14T10:27:37.168Z,30.90
2018-11-14T10:28:37.144Z,30.40
2018-11-14T10:29:37.112Z,32.30
2018-11-14T10:30:37.088Z,31.20
2018-11-14T10:31:37.068Z,31.80
2018-11-14T10:32:37.235Z,33.90
2018-11-14T10:33:37.206Z,33.10
2018-11-14T10:34:36.976Z,31.10
2018-11-14T10:35:36.948Z,30.60
2018-11-14T10:36:36.919Z,26.70
2018-11-14T10:37:36.893Z,28.10
2018-11-14T10:38:36.867Z,24.90
2018-11-14T10:39:36.839Z,28.40
2018-11-14T10:40:36.811Z,31.00
2018-11-14T10:41:36.788Z,28.80
2018-11-14T10:42:36.762Z,30.20
2018-11-14T10:43:36.730Z,32.20
2018-11-14T10:44:36.703Z,31.90
2018-11-14T10:45:36.677Z,30.10
2018-11-14T10:46:36.666Z,29.50
2018-11-14T10:47:36.623Z,29.90
2018-11-14T10:48:36.595Z,30.10
2018-11-14T10:49:36.568Z,28.80
2018-11-14T10:50:36.541Z,28.40
2018-11-14T10:51:36.514Z,30.10
2018-11-14T10:52:36.486Z,27.90
2018-11-14T10:53:36.466Z,30.00
2018-11-14T10:54:36.441Z,30.10
2018-11-14T10:55:36.407Z,29.00
2018-11-14T10:56:36.378Z,27.80
2018-11-14T10:57:36.351Z,28.80
2018-11-14T10:58:36.344Z,28.90
2018-11-14T10:59:36.297Z,29.00
2018-11-14T11:00:36.270Z,29.00
2018-11-14T11:01:36.243Z,29.60
2018-11-14T11:02:36.216Z,28.50
2018-11-14T11:03:36.187Z,28.70
2018-11-14T11:04:36.162Z,29.60
2018-11-14T11:05:36.138Z,29.20
2018-11-14T11:06:36.106Z,29.20
2018-11-14T11:07:36.080Z,29.40
2018-11-14T11:08:36.159Z,29.00
2018-11-14T11:09:36.026Z,30.10
2018-11-14T11:10:36.004Z,29.40
2018-11-14T11:11:35.970Z,30.00
2018-11-14T11:12:35.943Z,31.70
2018-11-14T11:13:35.978Z,30.70
2018-11-14T11:14:35.890Z,29.50
2018-11-14T11:15:35.890Z,28.60
2018-11-14T11:16:35.858Z,29.50
2018-11-14T11:17:35.846Z,28.40
2018-11-14T11:18:35.799Z,28.50
2018-11-14T11:19:35.781Z,28.30
2018-11-14T11:20:35.748Z,28.40
2018-11-14T11:21:35.709Z,29.20
2018-11-14T11:22:35.670Z,28.90
2018-11-14T11:23:35.723Z,29.50
2018-11-14T11:24:35.617Z,29.50
2018-11-14T11:25:35.589Z,29.40
2018-11-14T11:26:35.562Z,28.50
2018-11-14T11:27:35.533Z,29.60
2018-11-14T11:28:35.507Z,30.10
2018-11-14T11:29:35.483Z,31.20
2018-11-14T11:30:35.486Z,30.30
2018-11-14T11:31:35.430Z,29.70
2018-11-14T11:32:35.396Z,29.70
2018-11-14T11:33:35.368Z,30.40
2018-11-14T11:34:35.341Z,29.90
2018-11-14T11:35:35.313Z,30.70
2018-11-14T11:36:35.284Z,31.10
2018-11-14T11:37:35.258Z,30.30
2018-11-14T11:38:35.240Z,31.30
2018-11-14T11:39:35.228Z,30.20
2018-11-14T11:40:35.181Z,30.20
2018-11-14T11:41:35.164Z,29.50
2018-11-14T11:42:35.123Z,30.80
2018-11-14T11:43:35.095Z,31.50
2018-11-14T11:44:35.112Z,28.60
2018-11-14T11:45:35.041Z,28.80
2018-11-14T11:46:35.015Z,31.20
2018-11-14T11:47:34.984Z,29.30
2018-11-14T11:48:34.957Z,30.60
2018-11-14T11:49:34.930Z,32.10
2018-11-14T11:50:34.903Z,31.40
2018-11-14T11:51:34.874Z,32.50
2018-11-14T11:52:34.847Z,35.30
2018-11-14T11:53:34.820Z,34.40
2018-11-14T11:54:34.793Z,35.80
2018-11-14T11:55:34.765Z,36.10
2018-11-14T11:56:34.737Z,34.30
2018-11-14T11:57:34.767Z,33.20
2018-11-14T11:58:34.684Z,33.00
2018-11-14T11:59:34.691Z,34.10
2018-11-14T12:00:34.814Z,33.20
2018-11-14T12:01:34.610Z,33.80
2018-11-14T12:02:34.588Z,32.30
2018-11-14T12:03:34.546Z,34.30
2018-11-14T12:04:34.528Z,33.40
2018-11-14T12:05:34.515Z,33.50
2018-11-14T12:06:34.623Z,33.80
2018-11-14T12:07:34.436Z,33.30
2018-11-14T12:08:34.408Z,32.90
2018-11-14T12:09:34.380Z,33.70
2018-11-14T12:10:34.381Z,32.80
2018-11-14T12:11:34.331Z,32.10
2018-11-14T12:12:34.303Z,32.20
2018-11-14T12:13:34.285Z,33.30
2018-11-14T12:14:34.247Z,33.30
2018-11-14T12:15:34.217Z,33.40
2018-11-14T12:16:34.189Z,33.80
2018-11-14T12:17:34.169Z,35.10
2018-11-14T12:18:34.136Z,34.50
2018-11-14T12:19:34.127Z,36.20
2018-11-14T12:20:34.081Z,34.90
2018-11-14T12:21:34.057Z,35.40
2018-11-14T12:22:34.027Z,36.80
2018-11-14T12:23:34.022Z,34.00
2018-11-14T12:24:33.972Z,35.00
2018-11-14T12:25:33.945Z,35.30
2018-11-14T12:26:33.921Z,35.10
2018-11-14T12:27:33.942Z,36.30
2018-11-14T12:28:33.863Z,34.20
2018-11-14T12:29:33.836Z,35.70
2018-11-14T12:30:33.887Z,35.00
2018-11-14T12:31:33.781Z,35.80
2018-11-14T12:32:33.761Z,36.30
2018-11-14T12:33:33.730Z,36.30
2018-11-14T12:34:33.716Z,36.40
2018-11-14T12:35:33.730Z,35.90
2018-11-14T12:36:33.646Z,36.20
2018-11-14T12:37:33.620Z,37.20
2018-11-14T12:38:33.606Z,36.00
2018-11-14T12:39:33.566Z,36.30
2018-11-14T12:40:33.538Z,35.50
2018-11-14T12:41:33.512Z,36.10
2018-11-14T12:42:33.492Z,36.40
2018-11-14T12:43:33.510Z,37.90
2018-11-14T12:44:33.430Z,34.80
2018-11-14T12:45:33.403Z,36.40
2018-11-14T12:46:33.377Z,35.20
2018-11-14T12:47:33.356Z,36.40
2018-11-14T12:48:33.323Z,37.00
2018-11-14T12:49:33.302Z,34.70
2018-11-14T12:50:33.269Z,36.80
2018-11-14T12:51:33.242Z,37.10
2018-11-14T12:52:33.220Z,36.70
2018-11-14T12:53:33.188Z,35.00
2018-11-14T12:54:33.161Z,36.70
2018-11-14T12:55:33.133Z,37.10
2018-11-14T12:56:33.116Z,37.20
2018-11-14T12:57:33.081Z,36.20